< < Back
Terminal Aerodrome Forecast


Current Version              Previous Versions:   1  2  3  4  5  6  7  8  9  

Terminal Aerodrome Forecast

568
FTUS44 KBMX 292336
TAFBHM
TAF
KBHM 292336Z 3000/3024 16008KT P6SM SKC
     FM300600 06007KT P6SM OVC015
     FM300900 23007KT 4SM -RA OVC005
     FM301000 22007KT 3SM RA VCTS OVC005CB
     FM301300 32008KT P6SM OVC025=



Latest METAR

982
SAUS70 KWBC 300600 RRJ
MTRBHM
METAR KBHM 300553Z 19012KT 10SM FEW023 BKN060 14/09 A3016 RMK AO2 SLP209
T01440089 10161 20139 401720006 58011


USA.gov is the U.S. government's official web portal to all federal, state and local government web resources and services.